createdAt,value
2019-06-20T00:04:55.478Z,18.45
2019-06-20T00:10:01.998Z,18.71
2019-06-20T00:15:08.409Z,18.85
2019-06-20T00:20:15.531Z,19.12
2019-06-20T00:25:22.249Z,19.35
2019-06-20T00:30:28.425Z,19.28
2019-06-20T00:35:34.456Z,19.55
2019-06-20T00:40:40.987Z,19.28
2019-06-20T00:45:47.371Z,19.48
2019-06-20T00:50:54.065Z,19.37
2019-06-20T00:56:00.578Z,19.33
2019-06-20T01:01:07.276Z,19.26
2019-06-20T01:06:13.380Z,19.04
2019-06-20T01:11:19.479Z,18.89
2019-06-20T01:16:25.932Z,18.99
2019-06-20T01:21:32.415Z,18.61
2019-06-20T01:26:38.858Z,18.36
2019-06-20T01:31:44.912Z,18.29
2019-06-20T01:36:51.031Z,18.52
2019-06-20T01:41:57.182Z,18.37
2019-06-20T01:47:03.397Z,18.14
2019-06-20T01:52:09.583Z,17.75
2019-06-20T01:57:15.756Z,17.86
2019-06-20T02:02:21.908Z,18.24
2019-06-20T02:07:28.504Z,17.95
2019-06-20T02:12:34.621Z,17.81
2019-06-20T02:17:41.176Z,17.89
2019-06-20T02:22:47.510Z,17.85
2019-06-20T02:27:53.692Z,17.78
2019-06-20T02:33:00.193Z,17.78
2019-06-20T02:38:06.354Z,17.93
2019-06-20T02:43:13.138Z,17.89
2019-06-20T02:48:19.317Z,17.89
2019-06-20T02:53:25.696Z,17.86
2019-06-20T02:58:31.933Z,17.85
2019-06-20T03:03:38.272Z,17.83
2019-06-20T03:08:44.328Z,17.76
2019-06-20T03:13:50.456Z,17.64
2019-06-20T03:18:56.591Z,17.83
2019-06-20T03:24:03.035Z,17.57
2019-06-20T03:29:09.464Z,17.82
2019-06-20T03:34:15.583Z,17.85
2019-06-20T03:39:21.794Z,17.90
2019-06-20T03:44:28.296Z,17.92
2019-06-20T03:49:35.089Z,18.11
2019-06-20T03:54:41.275Z,18.14
2019-06-20T03:59:47.446Z,18.12
2019-06-20T04:04:53.924Z,18.28
2019-06-20T04:10:00.091Z,18.34
2019-06-20T04:15:18.572Z,18.21
2019-06-20T04:20:14.593Z,18.36
2019-06-20T04:25:21.330Z,18.35
2019-06-20T04:30:27.807Z,18.30
2019-06-20T04:35:34.573Z,18.32
2019-06-20T04:40:40.956Z,18.25
2019-06-20T04:46:04.767Z,18.44
2019-06-20T04:51:10.868Z,18.49
2019-06-20T04:56:17.518Z,18.19
2019-06-20T05:01:24.308Z,18.23
2019-06-20T05:06:30.776Z,18.34
2019-06-20T05:11:37.170Z,18.72
2019-06-20T05:16:43.557Z,18.97
2019-06-20T05:21:50.008Z,18.98
2019-06-20T05:26:56.934Z,18.79
2019-06-20T05:32:03.444Z,19.06
2019-06-20T05:37:09.550Z,19.24
2019-06-20T05:42:15.766Z,19.10
2019-06-20T05:47:22.138Z,18.85
2019-06-20T05:52:28.611Z,18.83
2019-06-20T05:57:34.653Z,18.61
2019-06-20T06:02:40.765Z,18.71
2019-06-20T06:07:47.947Z,18.50
2019-06-20T06:12:54.495Z,18.52
2019-06-20T06:18:00.596Z,18.92
2019-06-20T06:23:06.729Z,19.54
2019-06-20T06:28:13.228Z,19.91
2019-06-20T06:33:19.336Z,19.60
2019-06-20T06:38:25.692Z,19.63
2019-06-20T06:43:31.793Z,19.83
2019-06-20T06:48:37.905Z,19.74
2019-06-20T06:53:44.000Z,20.43
2019-06-20T06:58:50.056Z,20.83
2019-06-20T07:03:56.164Z,20.67
2019-06-20T07:09:04.373Z,20.75
2019-06-20T07:14:10.587Z,20.05
2019-06-20T07:19:18.034Z,19.90
2019-06-20T07:24:24.162Z,19.63
2019-06-20T07:29:31.171Z,19.86
2019-06-20T07:34:37.639Z,19.53
2019-06-20T07:39:44.202Z,19.43
2019-06-20T07:44:51.052Z,19.53
2019-06-20T07:49:57.120Z,19.51
2019-06-20T07:55:03.788Z,20.02
2019-06-20T08:00:11.912Z,19.79
2019-06-20T08:05:18.700Z,20.13
2019-06-20T08:10:25.288Z,20.24
2019-06-20T08:15:32.599Z,20.55
2019-06-20T08:20:38.791Z,20.04
2019-06-20T08:25:44.965Z,20.18
2019-06-20T08:30:51.213Z,19.87
2019-06-20T08:35:58.763Z,20.01
2019-06-20T08:41:06.546Z,21.09
2019-06-20T08:46:13.351Z,21.72
2019-06-20T08:51:19.928Z,21.52
2019-06-20T08:56:26.324Z,21.79
2019-06-20T09:01:32.480Z,22.63
2019-06-20T09:06:38.978Z,23.36
2019-06-20T09:11:45.553Z,23.74
2019-06-20T09:16:52.285Z,24.35
2019-06-20T09:22:00.492Z,24.19
2019-06-20T09:27:06.813Z,24.64
2019-06-20T09:32:13.530Z,24.96
2019-06-20T09:37:20.031Z,24.77
2019-06-20T09:42:26.606Z,24.68
2019-06-20T09:47:32.873Z,25.08
2019-06-20T09:52:39.164Z,24.38
2019-06-20T09:57:47.323Z,24.01
2019-06-20T10:02:55.902Z,23.81
2019-06-20T10:08:03.146Z,24.43
2019-06-20T10:13:09.439Z,24.15
2019-06-20T10:18:15.570Z,23.86
2019-06-20T10:23:22.063Z,24.16
2019-06-20T10:28:28.452Z,24.15
2019-06-20T10:33:35.033Z,25.15
2019-06-20T10:38:41.587Z,26.19
2019-06-20T10:43:47.690Z,25.21
2019-06-20T10:48:53.875Z,25.69
2019-06-20T10:54:00.357Z,25.49
2019-06-20T10:59:06.721Z,26.12
2019-06-20T11:04:13.016Z,26.22
2019-06-20T11:09:19.508Z,26.62
2019-06-20T11:14:25.908Z,26.65
2019-06-20T11:19:32.157Z,27.05
2019-06-20T11:24:39.223Z,26.03
2019-06-20T11:29:46.553Z,25.90
2019-06-20T11:34:53.054Z,26.07
2019-06-20T11:39:59.236Z,26.20
2019-06-20T11:45:06.871Z,26.16
2019-06-20T11:50:13.676Z,26.06
2019-06-20T11:55:20.058Z,26.42
2019-06-20T12:00:26.856Z,26.08
2019-06-20T12:05:33.702Z,26.21
2019-06-20T12:10:40.894Z,26.28
2019-06-20T12:15:47.180Z,26.36
2019-06-20T12:20:53.574Z,26.38
2019-06-20T12:25:59.747Z,26.02
2019-06-20T12:31:18.501Z,26.81
2019-06-20T12:36:13.919Z,26.53
2019-06-20T12:41:19.954Z,26.87
2019-06-20T12:46:26.029Z,26.70
2019-06-20T12:51:32.877Z,26.73
2019-06-20T12:56:40.284Z,26.45
2019-06-20T13:01:48.393Z,27.31
2019-06-20T13:06:55.457Z,26.70
2019-06-20T13:12:01.916Z,26.87
2019-06-20T13:17:08.505Z,27.45
2019-06-20T13:22:14.965Z,27.46
2019-06-20T13:27:21.349Z,27.10
2019-06-20T13:32:27.731Z,26.19
2019-06-20T13:37:34.236Z,25.86
2019-06-20T13:42:42.110Z,26.14
2019-06-20T13:47:49.786Z,25.65
2019-06-20T13:52:56.288Z,25.31
2019-06-20T13:58:02.819Z,25.36
2019-06-20T14:03:09.150Z,24.97
2019-06-20T14:08:15.589Z,24.74
2019-06-20T14:13:22.172Z,24.51
2019-06-20T14:18:28.861Z,24.73
2019-06-20T14:23:34.988Z,24.18
2019-06-20T14:28:43.109Z,23.11
2019-06-20T14:33:50.732Z,22.73
2019-06-20T14:38:57.555Z,22.28
2019-06-20T14:44:04.062Z,22.27
2019-06-20T14:49:10.211Z,22.05
2019-06-20T14:54:19.602Z,21.87
2019-06-20T14:59:24.626Z,21.69
2019-06-20T15:04:30.888Z,21.49
2019-06-20T15:09:37.359Z,21.14
2019-06-20T15:14:44.527Z,21.09
2019-06-20T15:19:53.016Z,21.17
2019-06-20T15:25:00.883Z,21.16
2019-06-20T15:30:08.665Z,21.27
2019-06-20T15:35:15.291Z,21.19
2019-06-20T15:40:21.927Z,21.29
2019-06-20T15:45:28.190Z,21.32
2019-06-20T15:50:34.427Z,21.59
2019-06-20T15:55:40.598Z,22.14
2019-06-20T16:00:47.052Z,22.26
2019-06-20T16:05:53.251Z,22.49
2019-06-20T16:10:59.740Z,22.58
2019-06-20T16:16:06.008Z,23.35
2019-06-20T16:21:12.378Z,23.94
2019-06-20T16:26:19.231Z,24.54
2019-06-20T16:31:27.089Z,24.61
2019-06-20T16:36:33.207Z,24.60
2019-06-20T16:41:39.384Z,24.25
2019-06-20T16:46:45.567Z,24.17
2019-06-20T16:51:52.108Z,24.12
2019-06-20T16:56:58.207Z,23.87
2019-06-20T17:02:04.593Z,23.58
2019-06-20T17:07:10.951Z,23.85
2019-06-20T17:12:17.425Z,23.07
2019-06-20T17:17:23.607Z,22.25
2019-06-20T17:22:30.093Z,22.38
2019-06-20T17:27:36.275Z,22.55
2019-06-20T17:32:42.756Z,22.61
2019-06-20T17:37:49.947Z,22.57
2019-06-20T17:42:56.123Z,22.44
2019-06-20T17:48:02.280Z,22.39
2019-06-20T17:53:08.914Z,22.17
2019-06-20T17:58:15.278Z,21.97
2019-06-20T18:03:21.657Z,22.04
2019-06-20T18:08:27.759Z,22.12
2019-06-20T18:13:33.795Z,21.98
2019-06-20T18:18:39.864Z,21.78
2019-06-20T18:23:46.269Z,21.75
2019-06-20T18:28:52.306Z,21.28
2019-06-20T18:33:58.833Z,21.23
2019-06-20T18:39:07.179Z,21.15
2019-06-20T18:44:13.213Z,21.08
2019-06-20T18:49:19.659Z,20.99
2019-06-20T18:54:25.760Z,20.59
2019-06-20T18:59:32.840Z,20.40
2019-06-20T19:04:47.882Z,20.40
2019-06-20T19:09:47.872Z,20.25
2019-06-20T19:14:54.024Z,20.05
2019-06-20T19:20:01.010Z,19.86
2019-06-20T19:25:07.583Z,19.73
2019-06-20T19:30:14.577Z,19.63
2019-06-20T19:35:20.752Z,19.52
2019-06-20T19:40:30.040Z,19.62
2019-06-20T19:45:36.266Z,19.60
2019-06-20T19:50:42.499Z,19.48
2019-06-20T19:55:49.351Z,19.56
2019-06-20T20:00:55.485Z,19.44
2019-06-20T20:06:02.008Z,19.38
2019-06-20T20:11:08.400Z,19.15
2019-06-20T20:16:15.191Z,19.36
2019-06-20T20:21:21.613Z,19.57
2019-06-20T20:26:27.941Z,19.07
2019-06-20T20:31:33.976Z,18.85
2019-06-20T20:36:40.651Z,18.61
2019-06-20T20:41:46.743Z,18.77
2019-06-20T20:46:52.845Z,18.63
2019-06-20T20:51:58.887Z,18.36
2019-06-20T20:57:05.443Z,18.63
2019-06-20T21:02:12.342Z,18.93
2019-06-20T21:07:18.736Z,18.42
2019-06-20T21:12:24.845Z,18.97
2019-06-20T21:17:31.034Z,19.04
2019-06-20T21:22:37.638Z,18.85
2019-06-20T21:27:44.019Z,18.04
2019-06-20T21:32:50.117Z,17.77
2019-06-20T21:37:56.902Z,17.49
2019-06-20T21:43:03.007Z,17.12
2019-06-20T21:48:09.446Z,17.05
2019-06-20T21:53:15.577Z,16.99
2019-06-20T21:58:22.116Z,17.20
2019-06-20T22:03:28.683Z,16.88
2019-06-20T22:08:35.104Z,16.85
2019-06-20T22:13:43.841Z,16.83
2019-06-20T22:18:50.224Z,16.86
2019-06-20T22:23:56.286Z,16.89
2019-06-20T22:29:03.066Z,16.86
2019-06-20T22:34:09.756Z,16.78
2019-06-20T22:39:16.264Z,16.75
2019-06-20T22:44:22.456Z,16.46
2019-06-20T22:49:28.808Z,16.66
2019-06-20T22:54:34.998Z,16.62
2019-06-20T22:59:41.769Z,16.63
2019-06-20T23:04:47.928Z,16.56
2019-06-20T23:10:09.378Z,16.66
2019-06-20T23:15:03.095Z,16.28
2019-06-20T23:20:09.803Z,16.51
2019-06-20T23:25:16.111Z,16.43
2019-06-20T23:30:23.282Z,16.29
2019-06-20T23:35:29.771Z,16.14
2019-06-20T23:40:36.313Z,16.16
2019-06-20T23:45:42.794Z,16.05
2019-06-20T23:50:49.301Z,15.54
2019-06-20T23:55:55.894Z,15.53
